sensor_id;sensor_type;location;lat;lon;timestamp;temperature;humidity
28087;DHT22;15392;48.912;8.380;2023-03-01T00:01:24;8.10;43.00
28087;DHT22;15392;48.912;8.380;2023-03-01T00:03:52;8.10;42.80
28087;DHT22;15392;48.912;8.380;2023-03-01T00:06:19;8.00;42.80
28087;DHT22;15392;48.912;8.380;2023-03-01T00:08:46;8.00;42.80
28087;DHT22;15392;48.912;8.380;2023-03-01T00:11:13;8.00;42.80
28087;DHT22;15392;48.912;8.380;2023-03-01T00:13:45;7.90;42.80
28087;DHT22;15392;48.912;8.380;2023-03-01T00:16:15;7.90;42.80
28087;DHT22;15392;48.912;8.380;2023-03-01T00:18:43;7.80;42.80
28087;DHT22;15392;48.912;8.380;2023-03-01T00:21:09;7.80;42.90
28087;DHT22;15392;48.912;8.380;2023-03-01T00:23:36;7.80;43.00
28087;DHT22;15392;48.912;8.380;2023-03-01T00:26:06;7.80;43.10
28087;DHT22;15392;48.912;8.380;2023-03-01T00:28:33;7.70;43.10
28087;DHT22;15392;48.912;8.380;2023-03-01T00:31:04;7.70;43.30
28087;DHT22;15392;48.912;8.380;2023-03-01T00:33:31;7.70;43.20
28087;DHT22;15392;48.912;8.380;2023-03-01T00:36:01;7.70;43.30
28087;DHT22;15392;48.912;8.380;2023-03-01T00:38:27;7.70;43.30
28087;DHT22;15392;48.912;8.380;2023-03-01T00:40:52;7.70;43.30
28087;DHT22;15392;48.912;8.380;2023-03-01T00:43:19;7.70;43.20
28087;DHT22;15392;48.912;8.380;2023-03-01T00:45:44;7.70;43.20
28087;DHT22;15392;48.912;8.380;2023-03-01T00:48:10;7.70;43.30
28087;DHT22;15392;48.912;8.380;2023-03-01T00:50:36;7.70;43.30
28087;DHT22;15392;48.912;8.380;2023-03-01T00:53:02;7.70;43.30
28087;DHT22;15392;48.912;8.380;2023-03-01T00:55:28;7.70;43.40
28087;DHT22;15392;48.912;8.380;2023-03-01T00:57:53;7.70;43.30
28087;DHT22;15392;48.912;8.380;2023-03-01T01:00:20;7.70;43.30
28087;DHT22;15392;48.912;8.380;2023-03-01T01:02:46;7.70;43.40
28087;DHT22;15392;48.912;8.380;2023-03-01T01:05:12;7.70;43.30
28087;DHT22;15392;48.912;8.380;2023-03-01T01:07:38;7.70;43.30
28087;DHT22;15392;48.912;8.380;2023-03-01T01:10:05;7.70;43.30
28087;DHT22;15392;48.912;8.380;2023-03-01T01:12:32;7.70;43.20
28087;DHT22;15392;48.912;8.380;2023-03-01T01:14:58;7.70;43.30
28087;DHT22;15392;48.912;8.380;2023-03-01T01:17:24;7.70;43.20
28087;DHT22;15392;48.912;8.380;2023-03-01T01:19:49;7.70;43.20
28087;DHT22;15392;48.912;8.380;2023-03-01T01:22:15;7.70;43.30
28087;DHT22;15392;48.912;8.380;2023-03-01T01:24:41;7.70;43.30
28087;DHT22;15392;48.912;8.380;2023-03-01T01:27:07;7.70;43.30
28087;DHT22;15392;48.912;8.380;2023-03-01T01:29:32;7.70;43.20
28087;DHT22;15392;48.912;8.380;2023-03-01T01:31:58;7.70;43.20
28087;DHT22;15392;48.912;8.380;2023-03-01T01:34:24;7.60;43.10
28087;DHT22;15392;48.912;8.380;2023-03-01T01:36:51;7.60;43.10
28087;DHT22;15392;48.912;8.380;2023-03-01T01:39:22;7.60;43.10
28087;DHT22;15392;48.912;8.380;2023-03-01T01:41:48;7.60;43.20
28087;DHT22;15392;48.912;8.380;2023-03-01T01:47:01;7.50;43.10
28087;DHT22;15392;48.912;8.380;2023-03-01T01:49:50;7.50;43.30
28087;DHT22;15392;48.912;8.380;2023-03-01T01:52:17;7.50;43.30
28087;DHT22;15392;48.912;8.380;2023-03-01T01:54:56;7.40;43.20
28087;DHT22;15392;48.912;8.380;2023-03-01T01:57:39;7.40;43.40
28087;DHT22;15392;48.912;8.380;2023-03-01T02:00:23;7.40;43.30
28087;DHT22;15392;48.912;8.380;2023-03-01T02:03:12;7.40;43.40
28087;DHT22;15392;48.912;8.380;2023-03-01T02:08:36;7.40;43.40
28087;DHT22;15392;48.912;8.380;2023-03-01T02:11:03;7.40;43.40
28087;DHT22;15392;48.912;8.380;2023-03-01T02:13:31;7.40;43.50
28087;DHT22;15392;48.912;8.380;2023-03-01T02:15:58;7.40;43.50
28087;DHT22;15392;48.912;8.380;2023-03-01T02:18:25;7.40;43.50
28087;DHT22;15392;48.912;8.380;2023-03-01T02:23:44;7.40;43.40
28087;DHT22;15392;48.912;8.380;2023-03-01T02:26:23;7.40;43.60
28087;DHT22;15392;48.912;8.380;2023-03-01T02:28:53;7.40;43.50
28087;DHT22;15392;48.912;8.380;2023-03-01T02:31:20;7.40;43.60
28087;DHT22;15392;48.912;8.380;2023-03-01T02:34:05;7.30;43.50
28087;DHT22;15392;48.912;8.380;2023-03-01T02:36:36;7.30;43.50
28087;DHT22;15392;48.912;8.380;2023-03-01T02:39:05;7.30;43.50
28087;DHT22;15392;48.912;8.380;2023-03-01T02:41:35;7.30;43.50
28087;DHT22;15392;48.912;8.380;2023-03-01T02:44:03;7.30;43.50
28087;DHT22;15392;48.912;8.380;2023-03-01T02:46:29;7.30;43.50
28087;DHT22;15392;48.912;8.380;2023-03-01T02:48:57;7.30;43.50
28087;DHT22;15392;48.912;8.380;2023-03-01T02:56:46;7.30;43.50
28087;DHT22;15392;48.912;8.380;2023-03-01T02:59:16;7.30;43.60
28087;DHT22;15392;48.912;8.380;2023-03-01T03:01:43;7.20;43.50
28087;DHT22;15392;48.912;8.380;2023-03-01T03:04:13;7.20;43.50
28087;DHT22;15392;48.912;8.380;2023-03-01T03:06:48;7.20;43.50
28087;DHT22;15392;48.912;8.380;2023-03-01T03:09:16;7.20;43.50
28087;DHT22;15392;48.912;8.380;2023-03-01T03:11:42;7.20;43.50
28087;DHT22;15392;48.912;8.380;2023-03-01T03:14:10;7.20;43.50
28087;DHT22;15392;48.912;8.380;2023-03-01T03:16:41;7.20;43.50
28087;DHT22;15392;48.912;8.380;2023-03-01T03:19:11;7.20;43.60
28087;DHT22;15392;48.912;8.380;2023-03-01T03:21:37;7.20;43.50
28087;DHT22;15392;48.912;8.380;2023-03-01T03:24:04;7.20;43.60
28087;DHT22;15392;48.912;8.380;2023-03-01T03:26:31;7.20;43.50
28087;DHT22;15392;48.912;8.380;2023-03-01T03:28:57;7.20;43.60
28087;DHT22;15392;48.912;8.380;2023-03-01T03:31:23;7.20;43.60
28087;DHT22;15392;48.912;8.380;2023-03-01T03:33:49;7.20;43.60
28087;DHT22;15392;48.912;8.380;2023-03-01T03:36:21;7.10;43.60
28087;DHT22;15392;48.912;8.380;2023-03-01T03:38:48;7.20;43.60
28087;DHT22;15392;48.912;8.380;2023-03-01T03:41:14;7.20;43.60
28087;DHT22;15392;48.912;8.380;2023-03-01T03:43:41;7.10;43.50
28087;DHT22;15392;48.912;8.380;2023-03-01T03:46:09;7.10;43.50
28087;DHT22;15392;48.912;8.380;2023-03-01T03:48:41;7.10;43.50
28087;DHT22;15392;48.912;8.380;2023-03-01T03:51:16;7.10;43.50
28087;DHT22;15392;48.912;8.380;2023-03-01T03:53:43;7.10;43.50
28087;DHT22;15392;48.912;8.380;2023-03-01T03:56:10;7.10;43.60
28087;DHT22;15392;48.912;8.380;2023-03-01T03:58:36;7.10;43.60
28087;DHT22;15392;48.912;8.380;2023-03-01T04:01:02;7.00;43.60
28087;DHT22;15392;48.912;8.380;2023-03-01T04:03:30;7.10;43.60
28087;DHT22;15392;48.912;8.380;2023-03-01T04:05:58;7.00;43.60
28087;DHT22;15392;48.912;8.380;2023-03-01T04:08:25;7.00;43.50
28087;DHT22;15392;48.912;8.380;2023-03-01T04:10:53;7.00;43.60
28087;DHT22;15392;48.912;8.380;2023-03-01T04:13:23;7.00;43.60
28087;DHT22;15392;48.912;8.380;2023-03-01T04:15:54;6.90;43.60
28087;DHT22;15392;48.912;8.380;2023-03-01T04:18:23;6.90;43.70
28087;DHT22;15392;48.912;8.380;2023-03-01T04:20:49;6.90;43.70
28087;DHT22;15392;48.912;8.380;2023-03-01T04:23:19;6.90;43.70
28087;DHT22;15392;48.912;8.380;2023-03-01T04:25:57;6.90;43.80
28087;DHT22;15392;48.912;8.380;2023-03-01T04:28:32;6.90;43.80
28087;DHT22;15392;48.912;8.380;2023-03-01T04:31:03;6.90;43.80
28087;DHT22;15392;48.912;8.380;2023-03-01T04:33:47;6.90;43.90
28087;DHT22;15392;48.912;8.380;2023-03-01T04:36:17;6.90;43.80
28087;DHT22;15392;48.912;8.380;2023-03-01T04:38:45;6.90;43.80
28087;DHT22;15392;48.912;8.380;2023-03-01T04:41:13;6.90;43.80
28087;DHT22;15392;48.912;8.380;2023-03-01T04:43:40;6.90;43.80
28087;DHT22;15392;48.912;8.380;2023-03-01T04:46:09;6.90;43.80
28087;DHT22;15392;48.912;8.380;2023-03-01T04:48:38;6.90;43.80
28087;DHT22;15392;48.912;8.380;2023-03-01T04:51:05;6.90;43.80
28087;DHT22;15392;48.912;8.380;2023-03-01T04:53:32;6.90;43.80
28087;DHT22;15392;48.912;8.380;2023-03-01T04:55:58;6.90;43.80
28087;DHT22;15392;48.912;8.380;2023-03-01T04:58:28;6.90;43.80
28087;DHT22;15392;48.912;8.380;2023-03-01T05:00:54;6.90;43.80
28087;DHT22;15392;48.912;8.380;2023-03-01T05:03:20;6.90;43.90
28087;DHT22;15392;48.912;8.380;2023-03-01T05:05:50;6.80;43.80
28087;DHT22;15392;48.912;8.380;2023-03-01T05:08:16;6.90;43.80
28087;DHT22;15392;48.912;8.380;2023-03-01T05:10:51;6.90;43.90
28087;DHT22;15392;48.912;8.380;2023-03-01T05:13:18;6.80;43.80
28087;DHT22;15392;48.912;8.380;2023-03-01T05:15:59;6.80;43.80
28087;DHT22;15392;48.912;8.380;2023-03-01T05:18:28;6.80;43.80
28087;DHT22;15392;48.912;8.380;2023-03-01T05:21:01;6.80;43.80
28087;DHT22;15392;48.912;8.380;2023-03-01T05:23:30;6.80;43.80
28087;DHT22;15392;48.912;8.380;2023-03-01T05:26:00;6.80;43.90
28087;DHT22;15392;48.912;8.380;2023-03-01T05:28:28;6.80;44.60
28087;DHT22;15392;48.912;8.380;2023-03-01T05:30:54;6.70;43.90
28087;DHT22;15392;48.912;8.380;2023-03-01T05:33:20;6.70;43.90
28087;DHT22;15392;48.912;8.380;2023-03-01T05:35:48;6.80;44.00
28087;DHT22;15392;48.912;8.380;2023-03-01T05:38:15;6.80;44.00
28087;DHT22;15392;48.912;8.380;2023-03-01T05:40:42;6.80;44.00
28087;DHT22;15392;48.912;8.380;2023-03-01T05:43:09;6.80;44.00
28087;DHT22;15392;48.912;8.380;2023-03-01T05:45:37;6.80;44.00
28087;DHT22;15392;48.912;8.380;2023-03-01T05:48:05;6.80;44.00
28087;DHT22;15392;48.912;8.380;2023-03-01T05:50:37;6.80;44.00
28087;DHT22;15392;48.912;8.380;2023-03-01T05:53:11;6.80;44.00
28087;DHT22;15392;48.912;8.380;2023-03-01T05:55:42;6.80;44.00
28087;DHT22;15392;48.912;8.380;2023-03-01T05:58:14;6.80;44.00
28087;DHT22;15392;48.912;8.380;2023-03-01T06:00:41;6.70;43.90
28087;DHT22;15392;48.912;8.380;2023-03-01T06:03:11;6.70;43.90
28087;DHT22;15392;48.912;8.380;2023-03-01T06:05:38;6.70;43.90
28087;DHT22;15392;48.912;8.380;2023-03-01T06:08:05;6.70;44.00
28087;DHT22;15392;48.912;8.380;2023-03-01T06:10:31;6.70;44.00
28087;DHT22;15392;48.912;8.380;2023-03-01T06:12:57;6.70;43.90
28087;DHT22;15392;48.912;8.380;2023-03-01T06:15:24;6.60;43.90
28087;DHT22;15392;48.912;8.380;2023-03-01T06:17:51;6.60;43.90
28087;DHT22;15392;48.912;8.380;2023-03-01T06:20:22;6.60;44.00
28087;DHT22;15392;48.912;8.380;2023-03-01T06:22:49;6.50;44.00
28087;DHT22;15392;48.912;8.380;2023-03-01T06:25:18;6.50;44.10
28087;DHT22;15392;48.912;8.380;2023-03-01T06:27:46;6.50;44.20
28087;DHT22;15392;48.912;8.380;2023-03-01T06:30:16;6.50;44.20
28087;DHT22;15392;48.912;8.380;2023-03-01T06:32:42;6.50;44.20
28087;DHT22;15392;48.912;8.380;2023-03-01T06:35:13;6.50;44.30
28087;DHT22;15392;48.912;8.380;2023-03-01T06:37:42;6.50;44.30
28087;DHT22;15392;48.912;8.380;2023-03-01T06:40:09;6.40;44.30
28087;DHT22;15392;48.912;8.380;2023-03-01T06:42:38;6.50;44.30
28087;DHT22;15392;48.912;8.380;2023-03-01T06:45:06;6.50;44.40
28087;DHT22;15392;48.912;8.380;2023-03-01T06:47:33;6.50;44.30
28087;DHT22;15392;48.912;8.380;2023-03-01T06:50:00;6.50;44.40
28087;DHT22;15392;48.912;8.380;2023-03-01T06:52:26;6.50;44.30
28087;DHT22;15392;48.912;8.380;2023-03-01T06:54:52;6.50;44.30
28087;DHT22;15392;48.912;8.380;2023-03-01T06:57:18;6.50;44.30
28087;DHT22;15392;48.912;8.380;2023-03-01T06:59:43;6.50;44.30
28087;DHT22;15392;48.912;8.380;2023-03-01T07:02:13;6.50;44.30
28087;DHT22;15392;48.912;8.380;2023-03-01T07:04:40;6.50;44.30
28087;DHT22;15392;48.912;8.380;2023-03-01T07:07:06;6.50;44.20
28087;DHT22;15392;48.912;8.380;2023-03-01T07:09:32;6.50;44.20
28087;DHT22;15392;48.912;8.380;2023-03-01T07:11:58;6.60;44.30
28087;DHT22;15392;48.912;8.380;2023-03-01T07:14:24;6.60;44.30
28087;DHT22;15392;48.912;8.380;2023-03-01T07:16:52;6.60;44.30
28087;DHT22;15392;48.912;8.380;2023-03-01T07:19:18;6.60;44.20
28087;DHT22;15392;48.912;8.380;2023-03-01T07:21:44;6.60;44.20
28087;DHT22;15392;48.912;8.380;2023-03-01T07:24:10;6.60;44.20
28087;DHT22;15392;48.912;8.380;2023-03-01T07:26:36;6.60;44.20
28087;DHT22;15392;48.912;8.380;2023-03-01T07:29:03;6.60;44.30
28087;DHT22;15392;48.912;8.380;2023-03-01T07:31:30;6.60;44.30
28087;DHT22;15392;48.912;8.380;2023-03-01T07:33:56;6.60;44.30
28087;DHT22;15392;48.912;8.380;2023-03-01T07:36:22;6.60;44.30
28087;DHT22;15392;48.912;8.380;2023-03-01T07:38:48;6.60;44.30
28087;DHT22;15392;48.912;8.380;2023-03-01T07:41:14;6.60;44.40
28087;DHT22;15392;48.912;8.380;2023-03-01T07:43:40;6.70;44.40
28087;DHT22;15392;48.912;8.380;2023-03-01T07:46:06;6.60;44.40
28087;DHT22;15392;48.912;8.380;2023-03-01T07:48:33;6.70;44.40
28087;DHT22;15392;48.912;8.380;2023-03-01T07:51:00;6.70;44.30
28087;DHT22;15392;48.912;8.380;2023-03-01T07:53:26;6.70;44.40
28087;DHT22;15392;48.912;8.380;2023-03-01T07:56:10;6.80;44.40
28087;DHT22;15392;48.912;8.380;2023-03-01T07:58:39;6.80;44.40
28087;DHT22;15392;48.912;8.380;2023-03-01T08:01:08;6.80;44.40
28087;DHT22;15392;48.912;8.380;2023-03-01T08:03:36;6.80;44.50
28087;DHT22;15392;48.912;8.380;2023-03-01T08:06:04;6.90;44.60
28087;DHT22;15392;48.912;8.380;2023-03-01T08:08:32;6.90;44.60
28087;DHT22;15392;48.912;8.380;2023-03-01T08:10:59;6.90;44.60
28087;DHT22;15392;48.912;8.380;2023-03-01T08:13:26;7.00;44.60
28087;DHT22;15392;48.912;8.380;2023-03-01T08:15:52;7.00;44.60
28087;DHT22;15392;48.912;8.380;2023-03-01T08:18:19;7.10;44.60
28087;DHT22;15392;48.912;8.380;2023-03-01T08:20:46;7.10;44.60
28087;DHT22;15392;48.912;8.380;2023-03-01T08:23:12;7.20;44.70
28087;DHT22;15392;48.912;8.380;2023-03-01T08:25:38;7.20;44.60
28087;DHT22;15392;48.912;8.380;2023-03-01T08:28:04;7.30;44.70
28087;DHT22;15392;48.912;8.380;2023-03-01T08:30:31;7.30;44.70
28087;DHT22;15392;48.912;8.380;2023-03-01T08:32:57;7.40;44.60
28087;DHT22;15392;48.912;8.380;2023-03-01T08:35:23;7.40;44.60
28087;DHT22;15392;48.912;8.380;2023-03-01T08:37:48;7.50;44.60
28087;DHT22;15392;48.912;8.380;2023-03-01T08:40:14;7.60;44.60
28087;DHT22;15392;48.912;8.380;2023-03-01T08:42:41;7.60;44.60
28087;DHT22;15392;48.912;8.380;2023-03-01T08:45:10;7.60;44.50
28087;DHT22;15392;48.912;8.380;2023-03-01T08:47:37;7.70;44.60
28087;DHT22;15392;48.912;8.380;2023-03-01T08:50:03;7.80;44.60
28087;DHT22;15392;48.912;8.380;2023-03-01T08:52:29;7.90;44.50
28087;DHT22;15392;48.912;8.380;2023-03-01T08:54:57;7.90;44.50
28087;DHT22;15392;48.912;8.380;2023-03-01T08:57:23;7.90;44.40
28087;DHT22;15392;48.912;8.380;2023-03-01T08:59:49;7.90;44.40
28087;DHT22;15392;48.912;8.380;2023-03-01T09:02:16;8.00;44.20
28087;DHT22;15392;48.912;8.380;2023-03-01T09:04:43;8.00;44.20
28087;DHT22;15392;48.912;8.380;2023-03-01T09:07:10;8.10;44.30
28087;DHT22;15392;48.912;8.380;2023-03-01T09:09:36;8.10;44.30
28087;DHT22;15392;48.912;8.380;2023-03-01T09:12:03;8.10;44.30
28087;DHT22;15392;48.912;8.380;2023-03-01T09:14:29;8.20;44.30
28087;DHT22;15392;48.912;8.380;2023-03-01T09:16:55;8.20;44.30
28087;DHT22;15392;48.912;8.380;2023-03-01T09:19:21;8.30;44.40
28087;DHT22;15392;48.912;8.380;2023-03-01T09:21:47;8.30;44.40
28087;DHT22;15392;48.912;8.380;2023-03-01T09:24:20;8.40;44.40
28087;DHT22;15392;48.912;8.380;2023-03-01T09:26:47;8.40;44.40
28087;DHT22;15392;48.912;8.380;2023-03-01T09:29:14;8.50;44.40
28087;DHT22;15392;48.912;8.380;2023-03-01T09:31:41;8.50;44.20
28087;DHT22;15392;48.912;8.380;2023-03-01T09:34:08;8.60;44.20
28087;DHT22;15392;48.912;8.380;2023-03-01T09:36:34;8.60;44.10
28087;DHT22;15392;48.912;8.380;2023-03-01T09:39:02;8.70;44.00
28087;DHT22;15392;48.912;8.380;2023-03-01T09:42:03;8.70;43.90
28087;DHT22;15392;48.912;8.380;2023-03-01T09:44:52;8.70;43.80
28087;DHT22;15392;48.912;8.380;2023-03-01T09:47:26;8.80;43.90
28087;DHT22;15392;48.912;8.380;2023-03-01T09:53:09;8.80;43.90
28087;DHT22;15392;48.912;8.380;2023-03-01T09:55:42;8.90;44.00
28087;DHT22;15392;48.912;8.380;2023-03-01T10:04:41;9.00;43.90
28087;DHT22;15392;48.912;8.380;2023-03-01T10:09:58;9.00;43.90
28087;DHT22;15392;48.912;8.380;2023-03-01T10:12:30;9.00;43.90
28087;DHT22;15392;48.912;8.380;2023-03-01T10:18:01;9.10;43.70
28087;DHT22;15392;48.912;8.380;2023-03-01T10:23:20;9.20;43.80
28087;DHT22;15392;48.912;8.380;2023-03-01T10:29:07;9.20;43.60
28087;DHT22;15392;48.912;8.380;2023-03-01T10:31:44;9.20;43.60
28087;DHT22;15392;48.912;8.380;2023-03-01T10:34:37;9.30;43.80
28087;DHT22;15392;48.912;8.380;2023-03-01T10:37:15;9.30;43.70
28087;DHT22;15392;48.912;8.380;2023-03-01T10:42:47;9.40;43.60
28087;DHT22;15392;48.912;8.380;2023-03-01T10:45:29;9.40;43.70
28087;DHT22;15392;48.912;8.380;2023-03-01T10:53:33;9.50;43.70
28087;DHT22;15392;48.912;8.380;2023-03-01T10:56:13;9.50;43.60
28087;DHT22;15392;48.912;8.380;2023-03-01T10:58:56;9.50;43.50
28087;DHT22;15392;48.912;8.380;2023-03-01T11:01:32;9.50;43.50
28087;DHT22;15392;48.912;8.380;2023-03-01T11:06:35;9.60;43.40
28087;DHT22;15392;48.912;8.380;2023-03-01T11:09:15;9.60;43.50
28087;DHT22;15392;48.912;8.380;2023-03-01T11:11:56;9.70;43.40
28087;DHT22;15392;48.912;8.380;2023-03-01T11:14:25;9.70;43.50
28087;DHT22;15392;48.912;8.380;2023-03-01T11:19:32;9.70;43.40
28087;DHT22;15392;48.912;8.380;2023-03-01T11:22:05;9.70;43.50
28087;DHT22;15392;48.912;8.380;2023-03-01T11:24:43;9.70;43.40
28087;DHT22;15392;48.912;8.380;2023-03-01T11:27:33;9.70;43.40
28087;DHT22;15392;48.912;8.380;2023-03-01T11:33:08;9.80;43.40
28087;DHT22;15392;48.912;8.380;2023-03-01T11:35:50;9.80;43.40
28087;DHT22;15392;48.912;8.380;2023-03-01T11:38:23;9.90;43.50
28087;DHT22;15392;48.912;8.380;2023-03-01T11:41:31;9.90;43.60
28087;DHT22;15392;48.912;8.380;2023-03-01T11:44:10;9.90;43.40
28087;DHT22;15392;48.912;8.380;2023-03-01T11:50:04;9.90;43.40
28087;DHT22;15392;48.912;8.380;2023-03-01T12:05:28;10.10;43.40
28087;DHT22;15392;48.912;8.380;2023-03-01T12:22:10;10.30;43.70
28087;DHT22;15392;48.912;8.380;2023-03-01T12:25:18;10.30;43.70
28087;DHT22;15392;48.912;8.380;2023-03-01T12:30:57;10.40;43.70
28087;DHT22;15392;48.912;8.380;2023-03-01T12:36:48;10.50;43.40
28087;DHT22;15392;48.912;8.380;2023-03-01T12:44:52;10.60;43.60
28087;DHT22;15392;48.912;8.380;2023-03-01T12:47:58;10.60;43.60
28087;DHT22;15392;48.912;8.380;2023-03-01T12:50:44;10.60;43.30
28087;DHT22;15392;48.912;8.380;2023-03-01T12:53:23;10.70;43.50
28087;DHT22;15392;48.912;8.380;2023-03-01T12:55:54;10.70;43.40
28087;DHT22;15392;48.912;8.380;2023-03-01T12:58:35;10.80;43.50
28087;DHT22;15392;48.912;8.380;2023-03-01T13:09:35;10.90;43.20
28087;DHT22;15392;48.912;8.380;2023-03-01T13:12:03;10.90;43.10
28087;DHT22;15392;48.912;8.380;2023-03-01T13:16:57;11.00;43.20
28087;DHT22;15392;48.912;8.380;2023-03-01T13:19:28;11.00;43.30
28087;DHT22;15392;48.912;8.380;2023-03-01T13:21:55;11.00;43.20
28087;DHT22;15392;48.912;8.380;2023-03-01T13:24:25;11.10;43.20
28087;DHT22;15392;48.912;8.380;2023-03-01T13:32:32;11.20;42.90
28087;DHT22;15392;48.912;8.380;2023-03-01T13:35:40;11.20;43.00
28087;DHT22;15392;48.912;8.380;2023-03-01T13:37:52;11.20;43.00
28087;DHT22;15392;48.912;8.380;2023-03-01T13:42:49;11.30;43.10
28087;DHT22;15392;48.912;8.380;2023-03-01T13:45:21;11.30;42.90
28087;DHT22;15392;48.912;8.380;2023-03-01T13:48:15;11.30;42.90
28087;DHT22;15392;48.912;8.380;2023-03-01T13:50:58;11.30;42.90
28087;DHT22;15392;48.912;8.380;2023-03-01T13:53:30;11.30;42.90
28087;DHT22;15392;48.912;8.380;2023-03-01T13:56:02;11.30;42.90
28087;DHT22;15392;48.912;8.380;2023-03-01T13:58:53;11.40;43.00
28087;DHT22;15392;48.912;8.380;2023-03-01T14:01:27;11.40;42.80
28087;DHT22;15392;48.912;8.380;2023-03-01T14:03:55;11.40;42.90
28087;DHT22;15392;48.912;8.380;2023-03-01T14:06:24;11.40;43.00
28087;DHT22;15392;48.912;8.380;2023-03-01T14:09:01;11.40;42.90
28087;DHT22;15392;48.912;8.380;2023-03-01T14:14:26;11.50;43.00
28087;DHT22;15392;48.912;8.380;2023-03-01T14:20:27;11.60;42.60
28087;DHT22;15392;48.912;8.380;2023-03-01T14:22:58;11.60;43.10
28087;DHT22;15392;48.912;8.380;2023-03-01T14:25:34;11.60;42.90
28087;DHT22;15392;48.912;8.380;2023-03-01T14:28:14;11.60;42.80
28087;DHT22;15392;48.912;8.380;2023-03-01T14:30:44;11.60;42.80
28087;DHT22;15392;48.912;8.380;2023-03-01T14:35:57;11.70;42.70
28087;DHT22;15392;48.912;8.380;2023-03-01T14:38:38;11.70;42.70
28087;DHT22;15392;48.912;8.380;2023-03-01T14:43:36;11.80;42.70
28087;DHT22;15392;48.912;8.380;2023-03-01T14:46:03;11.80;42.80
28087;DHT22;15392;48.912;8.380;2023-03-01T14:48:30;11.80;42.80
28087;DHT22;15392;48.912;8.380;2023-03-01T14:50:56;11.90;42.80
28087;DHT22;15392;48.912;8.380;2023-03-01T14:53:26;11.90;42.70
28087;DHT22;15392;48.912;8.380;2023-03-01T14:56:00;11.90;42.70
28087;DHT22;15392;48.912;8.380;2023-03-01T14:58:32;11.90;42.50
28087;DHT22;15392;48.912;8.380;2023-03-01T15:01:04;11.90;42.60
28087;DHT22;15392;48.912;8.380;2023-03-01T15:03:36;11.90;42.40
28087;DHT22;15392;48.912;8.380;2023-03-01T15:06:05;12.00;42.50
28087;DHT22;15392;48.912;8.380;2023-03-01T15:08:33;12.00;42.70
28087;DHT22;15392;48.912;8.380;2023-03-01T15:11:17;12.00;42.70
28087;DHT22;15392;48.912;8.380;2023-03-01T15:13:44;12.00;42.60
28087;DHT22;15392;48.912;8.380;2023-03-01T15:16:15;12.10;42.50
28087;DHT22;15392;48.912;8.380;2023-03-01T15:18:49;12.10;42.60
28087;DHT22;15392;48.912;8.380;2023-03-01T15:21:25;12.10;42.50
28087;DHT22;15392;48.912;8.380;2023-03-01T15:24:18;12.10;42.40
28087;DHT22;15392;48.912;8.380;2023-03-01T15:27:00;12.10;42.10
28087;DHT22;15392;48.912;8.380;2023-03-01T15:29:33;12.10;42.40
28087;DHT22;15392;48.912;8.380;2023-03-01T15:32:29;12.10;42.60
28087;DHT22;15392;48.912;8.380;2023-03-01T15:34:58;12.10;42.50
28087;DHT22;15392;48.912;8.380;2023-03-01T15:37:47;12.10;42.50
28087;DHT22;15392;48.912;8.380;2023-03-01T15:40:32;12.20;41.60
28087;DHT22;15392;48.912;8.380;2023-03-01T15:43:00;12.20;42.00
28087;DHT22;15392;48.912;8.380;2023-03-01T15:45:28;12.20;42.50
28087;DHT22;15392;48.912;8.380;2023-03-01T15:48:01;12.20;42.40
28087;DHT22;15392;48.912;8.380;2023-03-01T15:50:33;12.20;42.20
28087;DHT22;15392;48.912;8.380;2023-03-01T15:53:04;12.20;42.30
28087;DHT22;15392;48.912;8.380;2023-03-01T15:55:36;12.20;42.20
28087;DHT22;15392;48.912;8.380;2023-03-01T15:58:14;12.30;42.40
28087;DHT22;15392;48.912;8.380;2023-03-01T16:00:42;12.30;42.20
28087;DHT22;15392;48.912;8.380;2023-03-01T16:03:11;12.30;42.40
28087;DHT22;15392;48.912;8.380;2023-03-01T16:05:38;12.30;42.30
28087;DHT22;15392;48.912;8.380;2023-03-01T16:08:05;12.30;42.30
28087;DHT22;15392;48.912;8.380;2023-03-01T16:10:32;12.30;42.30
28087;DHT22;15392;48.912;8.380;2023-03-01T16:12:59;12.30;42.30
28087;DHT22;15392;48.912;8.380;2023-03-01T16:15:28;12.30;42.30
28087;DHT22;15392;48.912;8.380;2023-03-01T16:17:55;12.30;42.30
28087;DHT22;15392;48.912;8.380;2023-03-01T16:20:23;12.30;41.90
28087;DHT22;15392;48.912;8.380;2023-03-01T16:22:50;12.30;42.40
28087;DHT22;15392;48.912;8.380;2023-03-01T16:25:18;12.30;42.20
28087;DHT22;15392;48.912;8.380;2023-03-01T16:27:46;12.30;42.00
28087;DHT22;15392;48.912;8.380;2023-03-01T16:30:16;12.30;42.20
28087;DHT22;15392;48.912;8.380;2023-03-01T16:32:44;12.30;42.20
28087;DHT22;15392;48.912;8.380;2023-03-01T16:35:13;12.30;41.90
28087;DHT22;15392;48.912;8.380;2023-03-01T16:37:40;12.30;42.10
28087;DHT22;15392;48.912;8.380;2023-03-01T16:40:23;12.30;42.10
28087;DHT22;15392;48.912;8.380;2023-03-01T16:42:51;12.20;41.80
28087;DHT22;15392;48.912;8.380;2023-03-01T16:45:18;12.20;42.10
28087;DHT22;15392;48.912;8.380;2023-03-01T16:47:44;12.20;42.00
28087;DHT22;15392;48.912;8.380;2023-03-01T16:50:10;12.20;42.00
28087;DHT22;15392;48.912;8.380;2023-03-01T16:52:36;12.20;42.00
28087;DHT22;15392;48.912;8.380;2023-03-01T16:55:03;12.30;42.10
28087;DHT22;15392;48.912;8.380;2023-03-01T16:57:33;12.20;42.00
28087;DHT22;15392;48.912;8.380;2023-03-01T16:59:59;12.20;42.20
28087;DHT22;15392;48.912;8.380;2023-03-01T17:02:25;12.20;42.10
28087;DHT22;15392;48.912;8.380;2023-03-01T17:04:52;12.20;42.10
28087;DHT22;15392;48.912;8.380;2023-03-01T17:07:19;12.20;42.00
28087;DHT22;15392;48.912;8.380;2023-03-01T17:09:44;12.20;42.10
28087;DHT22;15392;48.912;8.380;2023-03-01T17:12:14;12.20;42.10
28087;DHT22;15392;48.912;8.380;2023-03-01T17:14:41;12.20;42.00
28087;DHT22;15392;48.912;8.380;2023-03-01T17:17:08;12.20;42.10
28087;DHT22;15392;48.912;8.380;2023-03-01T17:19:35;12.10;42.10
28087;DHT22;15392;48.912;8.380;2023-03-01T17:22:05;12.10;42.00
28087;DHT22;15392;48.912;8.380;2023-03-01T17:24:35;12.10;42.10
28087;DHT22;15392;48.912;8.380;2023-03-01T17:27:03;12.10;41.90
28087;DHT22;15392;48.912;8.380;2023-03-01T17:29:29;12.10;42.10
28087;DHT22;15392;48.912;8.380;2023-03-01T17:31:56;12.10;42.10
28087;DHT22;15392;48.912;8.380;2023-03-01T17:34:22;12.10;42.10
28087;DHT22;15392;48.912;8.380;2023-03-01T17:36:49;12.10;42.10
28087;DHT22;15392;48.912;8.380;2023-03-01T17:39:18;12.00;42.00
28087;DHT22;15392;48.912;8.380;2023-03-01T17:41:51;12.00;42.00
28087;DHT22;15392;48.912;8.380;2023-03-01T17:44:17;12.00;42.10
28087;DHT22;15392;48.912;8.380;2023-03-01T17:46:43;12.00;42.10
28087;DHT22;15392;48.912;8.380;2023-03-01T17:49:08;12.00;42.00
28087;DHT22;15392;48.912;8.380;2023-03-01T17:51:34;12.00;42.00
28087;DHT22;15392;48.912;8.380;2023-03-01T17:54:00;11.90;42.00
28087;DHT22;15392;48.912;8.380;2023-03-01T17:56:26;11.90;42.00
28087;DHT22;15392;48.912;8.380;2023-03-01T17:58:52;11.90;42.00
28087;DHT22;15392;48.912;8.380;2023-03-01T18:01:20;11.90;42.00
28087;DHT22;15392;48.912;8.380;2023-03-01T18:03:46;11.80;42.00
28087;DHT22;15392;48.912;8.380;2023-03-01T18:06:14;11.80;42.00